createdAt,value
2018-07-17T00:00:47.404Z,61.28
2018-07-17T00:01:47.421Z,61.09
2018-07-17T00:02:47.436Z,60.89
2018-07-17T00:03:47.450Z,61.09
2018-07-17T00:04:47.469Z,61.86
2018-07-17T00:05:47.488Z,60.89
2018-07-17T00:06:47.517Z,61.28
2018-07-17T00:07:47.523Z,61.09
2018-07-17T00:08:47.542Z,61.47
2018-07-17T00:09:47.559Z,61.86
2018-07-17T00:10:47.574Z,61.77
2018-07-17T00:11:47.592Z,61.09
2018-07-17T00:12:47.675Z,61.57
2018-07-17T00:13:47.627Z,61.86
2018-07-17T00:14:47.644Z,61.86
2018-07-17T00:15:47.667Z,61.47
2018-07-17T00:16:47.687Z,61.96
2018-07-17T00:17:47.695Z,62.05
2018-07-17T00:18:47.719Z,62.44
2018-07-17T00:19:47.734Z,62.99
2018-07-17T00:20:47.756Z,63.21
2018-07-17T00:21:47.774Z,64.63
2018-07-17T00:22:47.785Z,64.34
2018-07-17T00:23:47.805Z,63.02
2018-07-17T00:24:47.819Z,63.02
2018-07-17T00:25:47.836Z,62.60
2018-07-17T00:26:47.860Z,62.70
2018-07-17T00:27:47.875Z,62.99
2018-07-17T00:28:47.888Z,62.99
2018-07-17T00:29:47.908Z,63.28
2018-07-17T00:30:47.925Z,63.28
2018-07-17T00:31:47.946Z,64.05
2018-07-17T00:32:47.959Z,64.92
2018-07-17T00:33:47.978Z,64.50
2018-07-17T00:34:47.993Z,64.02
2018-07-17T00:35:48.010Z,64.34
2018-07-17T00:36:48.029Z,64.05
2018-07-17T00:37:48.097Z,64.24
2018-07-17T00:38:48.072Z,63.37
2018-07-17T00:39:48.079Z,63.67
2018-07-17T00:40:48.098Z,64.24
2018-07-17T00:41:48.115Z,64.43
2018-07-17T00:42:48.132Z,64.63
2018-07-17T00:43:48.149Z,65.40
2018-07-17T00:44:48.168Z,65.78
2018-07-17T00:45:48.188Z,64.82
2018-07-17T00:46:48.210Z,64.24
2018-07-17T00:47:48.221Z,64.24
2018-07-17T00:48:48.237Z,64.15
2018-07-17T00:49:48.275Z,64.40
2018-07-17T00:50:48.270Z,65.01
2018-07-17T00:51:48.287Z,64.40
2018-07-17T00:52:48.307Z,64.43
2018-07-17T00:53:48.345Z,64.89
2018-07-17T00:54:48.341Z,64.89
2018-07-17T00:55:48.358Z,65.17
2018-07-17T00:56:48.374Z,65.37
2018-07-17T00:57:48.393Z,66.04
2018-07-17T00:58:48.409Z,65.08
2018-07-17T00:59:48.428Z,64.79
2018-07-17T01:00:48.446Z,64.98
2018-07-17T01:01:48.460Z,65.47
2018-07-17T01:02:48.477Z,64.98
2018-07-17T01:03:48.497Z,65.47
2018-07-17T01:04:48.512Z,65.56
2018-07-17T01:05:48.531Z,65.17
2018-07-17T01:06:48.548Z,65.75
2018-07-17T01:07:48.566Z,65.56
2018-07-17T01:08:48.584Z,65.95
2018-07-17T01:09:48.620Z,66.11
2018-07-17T01:10:48.648Z,66.91
2018-07-17T01:11:48.635Z,66.11
2018-07-17T01:12:48.650Z,66.59
2018-07-17T01:13:48.672Z,66.01
2018-07-17T01:14:48.684Z,66.62
2018-07-17T01:15:48.704Z,66.01
2018-07-17T01:16:48.719Z,66.01
2018-07-17T01:17:48.736Z,66.01
2018-07-17T01:18:48.752Z,66.49
2018-07-17T01:19:48.779Z,67.07
2018-07-17T01:20:48.792Z,66.97
2018-07-17T01:21:48.804Z,67.07
2018-07-17T01:22:48.822Z,67.36
2018-07-17T01:23:48.838Z,67.07
2018-07-17T01:24:48.859Z,68.23
2018-07-17T01:25:48.873Z,68.61
2018-07-17T01:26:48.890Z,68.61
2018-07-17T01:27:48.908Z,68.13
2018-07-17T01:28:48.926Z,67.36
2018-07-17T01:29:48.942Z,67.74
2018-07-17T01:30:48.960Z,67.94
2018-07-17T01:31:48.976Z,68.23
2018-07-17T01:32:49.000Z,68.32
2018-07-17T01:33:49.012Z,68.32
2018-07-17T01:34:49.032Z,68.23
2018-07-17T01:35:49.043Z,67.84
2018-07-17T01:36:49.068Z,68.68
2018-07-17T01:37:49.129Z,67.90
2018-07-17T01:38:49.099Z,68.13
2018-07-17T01:39:49.112Z,68.04
2018-07-17T01:40:49.130Z,68.32
2018-07-17T01:41:49.153Z,68.23
2018-07-17T01:42:49.219Z,67.26
2018-07-17T01:43:49.410Z,68.32
2018-07-17T01:44:49.198Z,68.32
2018-07-17T01:45:49.215Z,68.19
2018-07-17T01:46:49.232Z,68.10
2018-07-17T01:47:49.249Z,67.55
2018-07-17T01:48:49.265Z,67.84
2018-07-17T01:49:49.283Z,68.23
2018-07-17T01:50:49.298Z,67.94
2018-07-17T01:51:49.327Z,68.23
2018-07-17T01:52:49.336Z,68.10
2018-07-17T01:53:49.355Z,68.29
2018-07-17T01:54:49.371Z,68.38
2018-07-17T01:55:49.384Z,68.96
2018-07-17T01:56:49.404Z,68.68
2018-07-17T01:57:49.419Z,68.19
2018-07-17T01:58:49.437Z,68.58
2018-07-17T01:59:49.455Z,68.29
2018-07-17T02:00:49.470Z,68.00
2018-07-17T02:01:49.488Z,68.19
2018-07-17T02:02:49.501Z,68.29
2018-07-17T02:03:49.520Z,68.00
2018-07-17T02:04:49.590Z,68.87
2018-07-17T02:05:49.556Z,68.96
2018-07-17T02:06:49.572Z,69.15
2018-07-17T02:07:49.587Z,69.15
2018-07-17T02:08:49.603Z,68.96
2018-07-17T02:09:49.629Z,69.25
2018-07-17T02:10:49.644Z,69.25
2018-07-17T02:11:49.657Z,69.15
2018-07-17T02:12:49.676Z,70.02
2018-07-17T02:13:49.692Z,69.83
2018-07-17T02:14:49.709Z,69.73
2018-07-17T02:15:49.917Z,70.21
2018-07-17T02:16:49.781Z,69.35
2018-07-17T02:17:49.757Z,69.64
2018-07-17T02:18:49.793Z,69.73
2018-07-17T02:19:49.790Z,69.93
2018-07-17T02:20:49.808Z,70.41
2018-07-17T02:21:49.830Z,69.51
2018-07-17T02:22:49.844Z,69.73
2018-07-17T02:23:49.858Z,70.41
2018-07-17T02:24:49.878Z,70.18
2018-07-17T02:25:49.902Z,70.18
2018-07-17T02:26:49.917Z,70.50
2018-07-17T02:27:49.925Z,70.31
2018-07-17T02:28:49.945Z,70.60
2018-07-17T02:29:49.962Z,71.28
2018-07-17T02:30:49.977Z,70.56
2018-07-17T02:31:49.995Z,70.89
2018-07-17T02:32:50.010Z,70.66
2018-07-17T02:33:50.030Z,70.89
2018-07-17T02:34:50.051Z,71.04
2018-07-17T02:35:50.102Z,70.76
2018-07-17T02:36:50.082Z,71.72
2018-07-17T02:37:50.102Z,70.66
2018-07-17T02:38:50.117Z,71.53
2018-07-17T02:39:50.134Z,71.04
2018-07-17T02:40:50.151Z,71.14
2018-07-17T02:41:50.168Z,70.86
2018-07-17T02:42:50.178Z,71.14
2018-07-17T02:43:50.199Z,70.86
2018-07-17T02:44:50.215Z,71.43
2018-07-17T02:45:50.232Z,71.43
2018-07-17T02:46:50.249Z,71.14
2018-07-17T02:47:50.263Z,71.91
2018-07-17T02:48:50.282Z,71.53
2018-07-17T02:49:50.369Z,72.20
2018-07-17T02:50:50.350Z,72.78
2018-07-17T02:51:50.332Z,72.68
2018-07-17T02:52:50.349Z,72.68
2018-07-17T02:53:50.365Z,72.97
2018-07-17T02:54:50.381Z,72.78
2018-07-17T02:55:50.398Z,72.30
2018-07-17T02:56:50.413Z,72.20
2018-07-17T02:57:50.432Z,72.88
2018-07-17T02:58:50.453Z,72.78
2018-07-17T02:59:50.496Z,73.26
2018-07-17T03:00:50.488Z,73.22
2018-07-17T03:01:50.500Z,73.32
2018-07-17T03:02:50.521Z,73.16
2018-07-17T03:03:50.547Z,72.68
2018-07-17T03:04:50.549Z,72.39
2018-07-17T03:05:50.568Z,72.97
2018-07-17T03:06:50.903Z,73.07
2018-07-17T03:07:50.599Z,73.71
2018-07-17T03:08:50.616Z,73.46
2018-07-17T03:09:50.631Z,72.97
2018-07-17T03:10:50.648Z,72.78
2018-07-17T03:11:50.666Z,73.16
2018-07-17T03:12:50.681Z,72.68
2018-07-17T03:13:50.699Z,72.20
2018-07-17T03:14:50.719Z,73.55
2018-07-17T03:15:50.739Z,73.65
2018-07-17T03:16:50.755Z,72.68
2018-07-17T03:17:50.771Z,72.97
2018-07-17T03:18:50.784Z,72.78
2018-07-17T03:19:50.800Z,72.30
2018-07-17T03:20:50.819Z,72.30
2018-07-17T03:21:50.832Z,72.49
2018-07-17T03:22:50.897Z,72.97
2018-07-17T03:23:50.867Z,73.26
2018-07-17T03:24:50.888Z,72.59
2018-07-17T03:25:50.899Z,73.26
2018-07-17T03:26:50.921Z,73.55
2018-07-17T03:27:50.932Z,73.46
2018-07-17T03:28:50.955Z,72.78
2018-07-17T03:29:50.966Z,73.07
2018-07-17T03:30:50.982Z,72.78
2018-07-17T03:31:51.000Z,73.36
2018-07-17T03:32:51.015Z,72.88
2018-07-17T03:33:51.036Z,73.55
2018-07-17T03:34:51.049Z,73.71
2018-07-17T03:35:51.070Z,73.80
2018-07-17T03:36:51.084Z,73.80
2018-07-17T03:37:51.104Z,74.86
2018-07-17T03:38:51.117Z,74.19
2018-07-17T03:39:51.134Z,74.57
2018-07-17T03:40:51.150Z,74.29
2018-07-17T03:41:51.166Z,74.09
2018-07-17T03:42:51.184Z,75.24
2018-07-17T03:43:51.201Z,75.15
2018-07-17T03:44:51.235Z,74.29
2018-07-17T03:45:51.232Z,75.34
2018-07-17T03:46:51.251Z,74.19
2018-07-17T03:47:51.267Z,75.15
2018-07-17T03:48:51.283Z,74.38
2018-07-17T03:49:51.304Z,76.11
2018-07-17T03:50:51.317Z,75.05
2018-07-17T03:51:51.337Z,75.05
2018-07-17T03:52:51.367Z,74.86
2018-07-17T03:53:51.385Z,75.44
2018-07-17T03:54:51.423Z,75.92
2018-07-17T03:55:51.425Z,76.21
2018-07-17T03:56:51.418Z,76.01
2018-07-17T03:57:51.435Z,76.21
2018-07-17T03:58:51.452Z,75.24
2018-07-17T03:59:51.469Z,74.96
2018-07-17T04:00:51.476Z,75.24
2018-07-17T04:01:51.494Z,75.92
2018-07-17T04:02:51.570Z,75.34
2018-07-17T04:03:51.533Z,76.21
2018-07-17T04:04:51.544Z,75.82
2018-07-17T04:05:51.561Z,75.92
2018-07-17T04:06:51.578Z,76.21
2018-07-17T04:07:51.616Z,76.40
2018-07-17T04:08:51.614Z,76.50
2018-07-17T04:09:51.628Z,76.21
2018-07-17T04:10:51.643Z,76.59
2018-07-17T04:11:51.659Z,76.21
2018-07-17T04:12:51.677Z,75.92
2018-07-17T04:13:51.694Z,76.50
2018-07-17T04:14:51.708Z,75.92
2018-07-17T04:15:51.730Z,76.59
2018-07-17T04:16:51.743Z,76.78
2018-07-17T04:17:51.763Z,76.69
2018-07-17T04:18:51.775Z,76.98
2018-07-17T04:19:51.791Z,77.36
2018-07-17T04:20:51.811Z,77.17
2018-07-17T04:21:51.827Z,76.78
2018-07-17T04:22:51.843Z,77.08
2018-07-17T04:23:51.860Z,77.08
2018-07-17T04:24:51.877Z,77.94
2018-07-17T04:25:51.893Z,77.36
2018-07-17T04:26:51.909Z,77.26
2018-07-17T04:27:51.927Z,77.75
2018-07-17T04:28:51.944Z,77.08
2018-07-17T04:29:51.989Z,76.11
2018-07-17T04:30:51.992Z,76.98
2018-07-17T04:31:52.016Z,76.40
2018-07-17T04:32:52.013Z,76.40
2018-07-17T04:33:52.029Z,76.59
2018-07-17T04:34:52.051Z,76.31
2018-07-17T04:35:52.059Z,76.40
2018-07-17T04:36:52.079Z,76.78
2018-07-17T04:37:52.093Z,76.82
2018-07-17T04:38:52.109Z,76.92
2018-07-17T04:39:52.126Z,75.96
2018-07-17T04:40:52.150Z,76.53
2018-07-17T04:41:52.871Z,76.25
2018-07-17T04:42:52.176Z,76.53
2018-07-17T04:43:52.192Z,76.63
2018-07-17T04:44:52.214Z,76.06
2018-07-17T04:45:52.227Z,76.82
2018-07-17T04:46:52.245Z,77.40
2018-07-17T04:47:53.239Z,76.15
2018-07-17T04:48:52.278Z,76.06
2018-07-17T04:49:52.295Z,76.25
2018-07-17T04:50:53.373Z,76.15
2018-07-17T04:51:52.328Z,76.34
2018-07-17T04:52:52.349Z,76.15
2018-07-17T04:53:52.384Z,75.99
2018-07-17T04:54:52.389Z,75.99
2018-07-17T04:55:52.393Z,76.67
2018-07-17T04:56:52.409Z,76.57
2018-07-17T04:57:52.752Z,75.86
2018-07-17T04:58:52.498Z,76.38
2018-07-17T04:59:52.460Z,76.96
2018-07-17T05:00:52.478Z,77.25
2018-07-17T05:01:52.499Z,76.96
2018-07-17T05:02:52.510Z,76.09
2018-07-17T05:03:52.657Z,76.38
2018-07-17T05:04:52.604Z,76.18
2018-07-17T05:05:52.589Z,75.32
2018-07-17T05:06:52.577Z,75.99
2018-07-17T05:07:52.593Z,75.61
2018-07-17T05:08:52.610Z,75.90
2018-07-17T05:09:52.630Z,76.18
2018-07-17T05:10:52.644Z,74.84
2018-07-17T05:11:52.678Z,74.58
2018-07-17T05:12:52.749Z,74.88
2018-07-17T05:13:52.692Z,75.45
2018-07-17T05:14:52.709Z,75.32
2018-07-17T05:15:52.726Z,75.84
2018-07-17T05:16:52.742Z,75.74
2018-07-17T05:17:52.768Z,74.40
2018-07-17T05:18:52.779Z,75.84
2018-07-17T05:19:52.796Z,74.97
2018-07-17T05:20:52.813Z,75.07
2018-07-17T05:21:52.828Z,74.20
2018-07-17T05:22:52.865Z,74.30
2018-07-17T05:23:52.863Z,74.40
2018-07-17T05:24:52.877Z,73.05
2018-07-17T05:25:52.893Z,72.47
2018-07-17T05:26:52.909Z,72.37
2018-07-17T05:27:52.930Z,73.14
2018-07-17T05:28:52.984Z,71.41
2018-07-17T05:29:52.962Z,70.48
2018-07-17T05:30:52.977Z,70.25
2018-07-17T05:31:52.993Z,70.86
2018-07-17T05:32:53.012Z,70.76
2018-07-17T05:33:53.028Z,70.48
2018-07-17T05:34:53.047Z,69.71
2018-07-17T05:35:53.066Z,69.71
2018-07-17T05:36:53.079Z,71.15
2018-07-17T05:37:53.108Z,70.57
2018-07-17T05:38:53.335Z,70.19
2018-07-17T05:39:53.131Z,69.71
2018-07-17T05:40:53.147Z,69.61
2018-07-17T05:41:53.168Z,70.28
2018-07-17T05:42:53.180Z,70.09
2018-07-17T05:43:53.198Z,70.00
2018-07-17T05:44:53.214Z,69.23
2018-07-17T05:45:53.238Z,69.32
2018-07-17T05:46:54.320Z,68.35
2018-07-17T05:47:53.263Z,67.97
2018-07-17T05:48:53.284Z,67.30
2018-07-17T05:49:53.297Z,66.52
2018-07-17T05:50:53.314Z,66.52
2018-07-17T05:51:53.373Z,67.20
2018-07-17T05:52:53.347Z,68.10
2018-07-17T05:53:53.372Z,66.56
2018-07-17T05:54:53.388Z,65.98
2018-07-17T05:55:53.402Z,66.17
2018-07-17T05:56:53.420Z,66.66
2018-07-17T05:57:53.447Z,66.56
2018-07-17T05:58:53.457Z,66.56
2018-07-17T05:59:53.467Z,67.23
2018-07-17T06:00:53.484Z,67.46
2018-07-17T06:01:53.500Z,67.46
2018-07-17T06:02:53.520Z,66.85
2018-07-17T06:03:53.554Z,66.11
2018-07-17T06:04:53.550Z,66.20
2018-07-17T06:05:53.568Z,65.72
2018-07-17T06:06:53.588Z,65.43
2018-07-17T06:07:53.602Z,65.34
2018-07-17T06:08:53.621Z,65.34
2018-07-17T06:09:53.639Z,66.11
2018-07-17T06:10:53.714Z,65.63
2018-07-17T06:11:53.676Z,65.91
2018-07-17T06:12:53.689Z,70.06
2018-07-17T06:13:56.306Z,69.20
2018-07-17T06:14:53.721Z,66.49
2018-07-17T06:15:53.783Z,66.24
2018-07-17T06:16:53.757Z,66.63
2018-07-17T06:17:53.775Z,67.11
2018-07-17T06:18:54.736Z,67.01
2018-07-17T06:19:54.134Z,65.85
2018-07-17T06:20:53.826Z,67.59
2018-07-17T06:21:53.842Z,68.07
2018-07-17T06:22:53.870Z,67.88
2018-07-17T06:23:53.955Z,67.30
2018-07-17T06:24:53.893Z,67.40
2018-07-17T06:25:53.926Z,67.97
2018-07-17T06:26:53.926Z,67.20
2018-07-17T06:27:53.949Z,66.08
2018-07-17T06:28:53.965Z,66.75
2018-07-17T06:29:53.981Z,66.66
2018-07-17T06:30:54.011Z,66.08
2018-07-17T06:31:54.344Z,66.17
2018-07-17T06:33:54.047Z,66.66
2018-07-17T06:34:54.068Z,68.01
2018-07-17T06:35:54.081Z,66.75
2018-07-17T06:36:54.100Z,66.08
2018-07-17T06:37:54.116Z,64.72
2018-07-17T06:38:54.156Z,64.72
2018-07-17T06:39:54.158Z,62.12
2018-07-17T06:40:54.169Z,62.12
2018-07-17T06:41:54.186Z,61.34
2018-07-17T06:42:54.203Z,62.31
2018-07-17T06:43:54.233Z,62.24
2018-07-17T06:44:54.257Z,63.28
2018-07-17T06:45:55.217Z,62.79
2018-07-17T06:46:54.279Z,63.85
2018-07-17T06:47:54.292Z,63.28
2018-07-17T06:48:54.309Z,63.37
2018-07-17T06:49:54.328Z,63.76
2018-07-17T06:50:54.438Z,64.24
2018-07-17T06:51:54.365Z,64.14
2018-07-17T06:52:54.384Z,64.14
2018-07-17T06:53:54.396Z,62.02
2018-07-17T06:54:54.418Z,61.73
2018-07-17T06:55:54.442Z,63.40
2018-07-17T06:56:55.222Z,63.50
2018-07-17T06:59:54.509Z,62.82
2018-07-17T07:00:54.522Z,62.24
2018-07-17T07:01:54.655Z,62.05
2018-07-17T07:02:54.552Z,61.08
2018-07-17T07:03:54.570Z,61.37
2018-07-17T07:04:54.592Z,61.86
2018-07-17T07:05:54.606Z,61.89
2018-07-17T07:06:54.624Z,60.14
2018-07-17T07:07:54.641Z,60.05
2018-07-17T07:08:54.661Z,59.47
2018-07-17T07:09:54.676Z,60.24
2018-07-17T07:10:54.699Z,61.02
2018-07-17T07:11:54.796Z,60.34
2018-07-17T07:12:54.729Z,61.11
2018-07-17T07:13:54.752Z,61.30
2018-07-17T07:14:54.774Z,62.27
2018-07-17T07:15:54.780Z,61.50
2018-07-17T07:16:54.798Z,62.01
2018-07-17T07:17:54.836Z,61.30
2018-07-17T07:18:54.842Z,61.43
2018-07-17T07:19:54.850Z,60.66
2018-07-17T07:20:54.869Z,61.63
2018-07-17T07:21:54.901Z,60.47
2018-07-17T07:22:55.515Z,59.50
2018-07-17T07:23:54.950Z,60.85
2018-07-17T07:24:54.940Z,60.85
2018-07-17T07:25:54.973Z,60.66
2018-07-17T07:26:55.364Z,61.72
2018-07-17T07:27:55.008Z,61.05
2018-07-17T07:28:55.037Z,61.05
2018-07-17T07:29:55.076Z,60.17
2018-07-17T07:30:55.243Z,60.08
2018-07-17T07:31:55.086Z,60.47
2018-07-17T07:32:55.209Z,60.08
2018-07-17T07:33:55.100Z,59.21
2018-07-17T07:34:55.122Z,58.72
2018-07-17T07:35:55.142Z,58.27
2018-07-17T07:36:55.161Z,58.37
2018-07-17T07:37:55.167Z,58.37
2018-07-17T07:38:55.183Z,57.50
2018-07-17T07:40:55.960Z,57.11
2018-07-17T07:41:56.508Z,57.01
2018-07-17T07:42:55.318Z,55.68
2018-07-17T07:43:55.270Z,56.36
2018-07-17T07:44:55.288Z,55.49
2018-07-17T07:45:55.307Z,55.52
2018-07-17T07:46:55.324Z,55.00
2018-07-17T07:47:55.344Z,57.07
2018-07-17T07:48:55.616Z,56.77
2018-07-17T07:49:55.391Z,56.39
2018-07-17T07:50:55.422Z,56.07
2018-07-17T07:51:55.416Z,56.29
2018-07-17T07:52:55.431Z,57.53
2018-07-17T07:53:55.632Z,56.39
2018-07-17T07:54:55.466Z,56.97
2018-07-17T07:55:55.490Z,55.04
2018-07-17T07:56:55.509Z,55.13
2018-07-17T07:57:55.520Z,54.16
2018-07-17T07:58:55.538Z,53.97
2018-07-17T07:59:55.555Z,53.67
2018-07-17T08:00:55.576Z,53.80
2018-07-17T08:01:55.593Z,54.67
2018-07-17T08:02:55.611Z,55.06
2018-07-17T08:03:55.650Z,55.22
2018-07-17T08:04:55.664Z,56.39
2018-07-17T08:05:55.665Z,56.29
2018-07-17T08:06:56.149Z,56.87
2018-07-17T08:07:55.707Z,56.10
2018-07-17T08:08:55.720Z,55.32
2018-07-17T08:09:55.736Z,54.55
2018-07-17T08:10:55.758Z,53.22
2018-07-17T08:11:55.888Z,53.70
2018-07-17T08:12:55.792Z,53.61
2018-07-17T08:13:55.809Z,53.99
2018-07-17T08:14:55.827Z,54.28
2018-07-17T08:15:55.847Z,53.02
2018-07-17T08:16:55.870Z,52.34
2018-07-17T08:17:55.882Z,51.96
2018-07-17T08:18:55.898Z,52.06
2018-07-17T08:19:55.937Z,52.37
2018-07-17T08:20:55.936Z,52.76
2018-07-17T08:21:55.955Z,51.79
2018-07-17T08:22:56.018Z,52.18
2018-07-17T08:23:55.999Z,53.44
2018-07-17T08:24:56.010Z,53.08
2018-07-17T08:25:56.030Z,52.66
2018-07-17T08:26:56.046Z,50.84
2018-07-17T08:27:56.064Z,52.78
2018-07-17T08:28:56.126Z,53.17
2018-07-17T08:29:56.101Z,53.53
2018-07-17T08:30:56.147Z,53.92
2018-07-17T08:31:56.152Z,53.05
2018-07-17T08:32:56.157Z,52.37
2018-07-17T08:33:56.174Z,51.62
2018-07-17T08:34:56.195Z,50.65
2018-07-17T08:35:56.292Z,51.91
2018-07-17T08:36:56.226Z,51.62
2018-07-17T08:37:56.246Z,51.04
2018-07-17T08:38:56.321Z,51.65
2018-07-17T08:39:56.283Z,50.87
2018-07-17T08:40:56.300Z,52.30
2018-07-17T08:41:56.317Z,51.72
2018-07-17T08:42:56.338Z,51.53
2018-07-17T08:43:56.357Z,52.88
2018-07-17T08:44:56.374Z,51.53
2018-07-17T08:45:56.392Z,50.16
2018-07-17T08:46:56.417Z,50.09
2018-07-17T08:47:56.428Z,50.29
2018-07-17T08:48:56.450Z,49.90
2018-07-17T08:49:56.472Z,50.48
2018-07-17T08:50:56.483Z,51.77
2018-07-17T08:51:56.503Z,51.16
2018-07-17T08:52:56.524Z,51.45
2018-07-17T08:53:56.549Z,51.75
2018-07-17T08:54:56.558Z,51.26
2018-07-17T08:55:56.575Z,50.96
2018-07-17T08:56:56.597Z,51.77
2018-07-17T08:57:56.614Z,51.75
2018-07-17T08:58:56.733Z,52.23
2018-07-17T08:59:56.749Z,51.55
2018-07-17T09:00:56.690Z,49.61
2018-07-17T09:01:56.709Z,49.24
2018-07-17T09:02:56.704Z,48.47
2018-07-17T09:03:56.724Z,48.88
2018-07-17T09:04:57.211Z,47.91
2018-07-17T09:05:56.847Z,47.61
2018-07-17T09:06:56.781Z,47.61
2018-07-17T09:07:56.802Z,47.05
2018-07-17T09:08:56.835Z,47.15
2018-07-17T09:09:56.857Z,47.03
2018-07-17T09:10:56.860Z,47.42
2018-07-17T09:11:56.904Z,47.32
2018-07-17T09:12:56.904Z,46.96
2018-07-17T09:13:56.916Z,47.05
2018-07-17T09:14:56.933Z,47.74
2018-07-17T09:15:56.956Z,46.96
2018-07-17T09:16:56.975Z,45.21
2018-07-17T09:17:56.990Z,44.72
2018-07-17T09:18:57.075Z,45.21
2018-07-17T09:19:57.028Z,45.50
2018-07-17T09:20:57.058Z,45.50
2018-07-17T09:21:57.066Z,45.69
2018-07-17T09:22:57.083Z,45.14
2018-07-17T09:23:58.269Z,45.42
2018-07-17T09:24:57.119Z,45.52
2018-07-17T09:25:57.141Z,44.65
2018-07-17T09:26:57.174Z,44.26
2018-07-17T09:27:57.205Z,44.74
2018-07-17T09:28:58.237Z,44.55
2018-07-17T09:29:57.215Z,45.23
2018-07-17T09:30:57.233Z,46.11
2018-07-17T09:31:57.264Z,45.23
2018-07-17T09:32:57.272Z,45.91
2018-07-17T09:33:57.292Z,45.14
2018-07-17T09:34:57.379Z,45.25
2018-07-17T09:35:57.412Z,44.65
2018-07-17T09:36:57.353Z,43.99
2018-07-17T09:37:57.593Z,44.18
2018-07-17T09:38:57.435Z,45.06
2018-07-17T09:39:57.405Z,46.32
2018-07-17T09:40:57.430Z,45.15
2018-07-17T09:41:57.445Z,44.86
2018-07-17T09:42:57.465Z,43.60
2018-07-17T09:43:57.488Z,42.91
2018-07-17T09:44:57.504Z,43.99
2018-07-17T09:46:57.629Z,44.67
2018-07-17T09:47:57.562Z,45.15
2018-07-17T09:48:57.580Z,45.45
2018-07-17T09:49:57.600Z,46.59
2018-07-17T09:50:57.618Z,45.32
2018-07-17T09:51:57.640Z,44.84
2018-07-17T09:52:57.667Z,44.74
2018-07-17T09:53:57.680Z,44.84
2018-07-17T09:54:57.693Z,43.01
2018-07-17T09:55:57.715Z,43.11
2018-07-17T09:56:57.742Z,43.11
2018-07-17T09:57:57.753Z,45.06
2018-07-17T09:58:57.776Z,45.15
2018-07-17T09:59:57.818Z,45.04
2018-07-17T10:00:57.809Z,44.74
2018-07-17T10:01:57.837Z,45.14
2018-07-17T10:02:57.848Z,45.72
2018-07-17T10:03:57.870Z,45.62
2018-07-17T10:04:57.886Z,44.74
2018-07-17T10:05:57.911Z,43.89
2018-07-17T10:06:57.927Z,42.53
2018-07-17T10:07:57.949Z,41.85
2018-07-17T10:08:58.009Z,41.19
2018-07-17T10:09:57.993Z,41.28
2018-07-17T10:10:58.570Z,40.41
2018-07-17T10:11:58.025Z,39.43
2018-07-17T10:12:58.075Z,38.36
2018-07-17T10:13:58.073Z,39.43
2018-07-17T10:14:58.083Z,40.60
2018-07-17T10:15:58.102Z,40.50
2018-07-17T10:16:58.126Z,41.19
2018-07-17T10:17:58.144Z,42.06
2018-07-17T10:18:58.165Z,40.70
2018-07-17T10:19:58.236Z,40.50
2018-07-17T10:20:58.200Z,41.48
2018-07-17T10:21:58.220Z,40.72
2018-07-17T10:22:58.240Z,40.42
2018-07-17T10:23:58.264Z,41.03
2018-07-17T10:24:58.288Z,40.25
2018-07-17T10:25:58.324Z,40.76
2018-07-17T10:26:58.325Z,39.29
2018-07-17T10:27:58.353Z,38.51
2018-07-17T10:28:58.366Z,38.61
2018-07-17T10:29:58.381Z,40.17
2018-07-17T10:30:58.403Z,38.42
2018-07-17T10:31:58.459Z,37.83
2018-07-17T10:32:58.521Z,37.54
2018-07-17T10:33:59.332Z,40.17
2018-07-17T10:34:58.490Z,38.22
2018-07-17T10:35:58.522Z,38.69
2018-07-17T10:36:59.778Z,38.20
2018-07-17T10:37:59.289Z,38.89
2018-07-17T10:38:59.973Z,38.96
2018-07-17T10:39:59.343Z,39.26
2018-07-17T10:40:58.597Z,39.16
2018-07-17T10:41:58.636Z,39.36
2018-07-17T10:42:58.653Z,40.33
2018-07-17T10:43:58.694Z,41.03
2018-07-17T10:44:58.689Z,39.94
2018-07-17T10:45:58.732Z,39.86
2018-07-17T10:46:58.716Z,39.08
2018-07-17T10:47:58.743Z,39.18
2018-07-17T10:48:59.083Z,40.13
2018-07-17T10:49:58.774Z,40.81
2018-07-17T10:50:58.842Z,41.20
2018-07-17T10:51:58.814Z,41.32
2018-07-17T10:52:58.835Z,39.76
2018-07-17T10:53:58.851Z,39.96
2018-07-17T10:54:58.876Z,40.64
2018-07-17T10:55:58.966Z,40.55
2018-07-17T10:56:58.924Z,39.28
2018-07-17T10:57:58.934Z,39.96
2018-07-17T10:58:58.955Z,39.37
2018-07-17T10:59:58.971Z,39.86
2018-07-17T11:00:59.031Z,39.29
2018-07-17T11:01:59.045Z,39.39
2018-07-17T11:02:59.040Z,39.39
2018-07-17T11:03:59.056Z,38.22
2018-07-17T11:04:59.072Z,38.61
2018-07-17T11:05:59.091Z,38.79
2018-07-17T11:06:59.110Z,38.49
2018-07-17T11:07:59.144Z,38.89
2018-07-17T11:08:59.157Z,39.06
2018-07-17T11:09:59.252Z,39.26
2018-07-17T11:10:59.193Z,38.87
2018-07-17T11:11:59.210Z,38.67
2018-07-17T11:12:59.282Z,38.30
2018-07-17T11:13:59.251Z,37.91
2018-07-17T11:14:59.290Z,37.52
2018-07-17T11:15:59.307Z,36.65
2018-07-17T11:16:59.311Z,36.96
2018-07-17T11:17:59.327Z,35.88
2018-07-17T11:18:59.344Z,33.15
2018-07-17T11:19:59.364Z,33.95
2018-07-17T11:20:59.389Z,35.12
2018-07-17T11:21:59.439Z,36.49
2018-07-17T11:22:59.424Z,37.35
2018-07-17T11:23:59.462Z,37.95
2018-07-17T11:24:59.472Z,38.24
2018-07-17T11:25:59.490Z,36.39
2018-07-17T11:27:59.525Z,37.87
2018-07-17T11:28:59.548Z,35.82
2018-07-17T11:29:59.574Z,35.92
2018-07-17T11:30:59.596Z,36.70
2018-07-17T11:31:59.615Z,37.38
2018-07-17T11:32:59.628Z,36.21
2018-07-17T11:33:59.654Z,36.21
2018-07-17T11:34:59.743Z,36.02
2018-07-17T11:35:59.689Z,35.63
2018-07-17T11:36:59.812Z,35.04
2018-07-17T11:37:59.729Z,35.33
2018-07-17T11:38:59.919Z,36.99
2018-07-17T11:39:59.768Z,36.21
2018-07-17T11:40:59.834Z,34.94
2018-07-17T11:41:59.843Z,35.04
2018-07-17T11:42:59.832Z,35.24
2018-07-17T11:43:59.852Z,36.90
2018-07-17T11:45:00.597Z,38.75
2018-07-17T11:45:59.993Z,37.48
2018-07-17T11:46:59.961Z,36.29
2018-07-17T11:47:59.988Z,36.29
2018-07-17T11:48:59.951Z,35.69
2018-07-17T11:50:00.318Z,35.59
2018-07-17T11:51:00.236Z,36.10
2018-07-17T11:52:00.357Z,36.21
2018-07-17T11:53:00.050Z,36.33
2018-07-17T11:54:00.061Z,35.74
2018-07-17T11:55:00.085Z,34.78
2018-07-17T11:56:00.097Z,34.38
2018-07-17T11:57:00.126Z,35.36
2018-07-17T11:58:00.182Z,34.48
2018-07-17T11:59:00.189Z,35.17
2018-07-17T12:00:00.178Z,34.50
2018-07-17T12:01:00.200Z,35.09
2018-07-17T12:02:00.251Z,35.97
2018-07-17T12:03:00.236Z,33.72
2018-07-17T12:04:00.432Z,34.19
2018-07-17T12:05:00.298Z,34.38
2018-07-17T12:07:00.392Z,34.89
2018-07-17T12:08:00.377Z,36.46
2018-07-17T12:09:00.360Z,34.11
2018-07-17T12:10:00.578Z,33.15
2018-07-17T12:11:00.399Z,33.15
2018-07-17T12:12:00.421Z,35.01
2018-07-17T12:13:00.492Z,34.52
2018-07-17T12:14:00.509Z,34.24
2018-07-17T12:15:00.476Z,33.33
2018-07-17T12:16:00.499Z,35.75
2018-07-17T12:17:00.523Z,34.96
2018-07-17T12:18:00.546Z,35.64
2018-07-17T12:19:00.561Z,35.17
2018-07-17T12:20:01.183Z,35.97
2018-07-17T12:21:00.611Z,34.80
2018-07-17T12:22:00.632Z,35.38
2018-07-17T12:23:00.644Z,36.65
2018-07-17T12:24:00.676Z,34.70
2018-07-17T12:25:00.692Z,34.70
2018-07-17T12:26:00.711Z,34.62
2018-07-17T12:27:00.738Z,35.21
2018-07-17T12:28:00.767Z,35.19
2018-07-17T12:29:00.800Z,35.77
2018-07-17T12:30:00.800Z,34.97
2018-07-17T12:31:01.642Z,34.89
2018-07-17T12:32:00.838Z,35.19
2018-07-17T12:33:01.455Z,35.38
2018-07-17T12:34:01.065Z,37.24
2018-07-17T12:35:01.021Z,35.97
2018-07-17T12:36:00.925Z,36.65
2018-07-17T12:37:00.942Z,38.53
2018-07-17T12:38:00.967Z,35.01
2018-07-17T12:39:00.987Z,35.11
2018-07-17T12:40:01.007Z,35.89
2018-07-17T12:41:01.030Z,36.93
2018-07-17T12:42:01.048Z,37.22
2018-07-17T12:43:01.086Z,37.30
2018-07-17T12:44:01.091Z,37.12
2018-07-17T12:45:01.113Z,38.61
2018-07-17T12:46:01.133Z,37.35
2018-07-17T12:47:01.154Z,36.57
2018-07-17T12:48:01.222Z,36.30
2018-07-17T12:49:01.197Z,35.69
2018-07-17T12:50:02.119Z,35.58
2018-07-17T12:51:02.022Z,36.54
2018-07-17T12:52:01.920Z,36.85
2018-07-17T12:53:01.502Z,37.34
2018-07-17T12:54:01.876Z,37.43
2018-07-17T12:55:02.201Z,35.87
2018-07-17T12:56:01.444Z,35.77
2018-07-17T12:57:01.416Z,35.21
2018-07-17T12:58:01.836Z,33.56
2018-07-17T12:59:01.422Z,33.56
2018-07-17T13:00:02.012Z,34.55